This is the latest recevied weather packets stored in our database for station/object OM1PU-6. If no packets are shown the sender has not sent any weather packets the latest 10 day(s).
| Time | Temp. | Humidity | Pressure | Rain* | Wind** | Luminosity | Snow |
|---|---|---|---|---|---|---|---|
| 1777181592 | 12.78° C | 50% | 1029 hPa | 0 mm | - | - | - |
| 1777180692 | 12.78° C | 51% | 1028.9 hPa | 0 mm | - | - | - |
| 1777179791 | 12.78° C | 49% | 1028.7 hPa | 0 mm | - | - | - |
| 1777178892 | 12.78° C | 48% | 1028.2 hPa | 0 mm | - | - | - |
| 1777177991 | 12.78° C | 49% | 1027.7 hPa | 0 mm | - | - | - |
| 1777177092 | 12.22° C | 47% | 1027.1 hPa | 0 mm | - | - | - |
| 1777176191 | 12.22° C | 46% | 1027 hPa | 0 mm | - | - | - |
| 1777175291 | 12.78° C | 45% | 1026.7 hPa | 0 mm | - | - | - |
| 1777174392 | 12.78° C | 46% | 1026.6 hPa | 0 mm | - | - | - |
| 1777173492 | 12.22° C | 47% | 1026.1 hPa | 0 mm | - | - | - |
| 1777172591 | 12.22° C | 48% | 1025.8 hPa | 0 mm | - | - | - |
| 1777171691 | 12.78° C | 50% | 1025.7 hPa | 0 mm | - | - | - |
| 1777170792 | 12.78° C | 50% | 1025.9 hPa | 0 mm | - | - | - |
| 1777169892 | 12.78° C | 50% | 1025.6 hPa | 0 mm | - | - | - |
| 1777168992 | 12.78° C | 51% | 1025.4 hPa | 0 mm | - | - | - |
| 1777168092 | 13.33° C | 49% | 1025.2 hPa | 0 mm | - | - | - |
| 1777167191 | 13.33° C | 48% | 1024.9 hPa | 0 mm | - | - | - |
| 1777166291 | 10.56° C | 64% | 1024.5 hPa | 0 mm | - | - | - |
| 1777165391 | 11.11° C | 61% | 1024.4 hPa | 0 mm | - | - | - |
| 1777164492 | 11.67° C | 62% | 1024.5 hPa | 0 mm | - | - | - |
| 1777163591 | 11.67° C | 61% | 1024.5 hPa | 0 mm | - | - | - |
| 1777162691 | 12.22° C | 59% | 1024.5 hPa | 0 mm | - | - | - |
| 1777161791 | 13.33° C | 54% | 1024.4 hPa | 0 mm | - | - | - |
| 1777160892 | 14.44° C | 50% | 1024.5 hPa | 0 mm | - | - | - |
| 1777159991 | 14.44° C | 50% | 1024.2 hPa | 0 mm | - | - | - |
* Rain latest 24 hours (hover to see other rain measurements)
** Current wind speed in m/s (hover to see current wind gust speed)